sensor_id;sensor_type;location;lat;lon;timestamp;pressure;altitude;pressure_sealevel;temperature;humidity
41140;BME280;26881;48.784;9.192;2023-03-21T00:04:19;98842.28;;;10.79;71.34
41140;BME280;26881;48.784;9.192;2023-03-21T00:09:41;98839.09;;;10.89;71.66
41140;BME280;26881;48.784;9.192;2023-03-21T00:15:08;98834.44;;;10.94;71.20
41140;BME280;26881;48.784;9.192;2023-03-21T00:20:31;98839.78;;;10.77;71.94
41140;BME280;26881;48.784;9.192;2023-03-21T00:25:54;98828.06;;;10.68;73.17
41140;BME280;26881;48.784;9.192;2023-03-21T00:31:18;98823.97;;;10.79;72.27
41140;BME280;26881;48.784;9.192;2023-03-21T00:36:40;98817.34;;;10.73;72.00
41140;BME280;26881;48.784;9.192;2023-03-21T00:42:02;98804.41;;;10.86;71.41
41140;BME280;26881;48.784;9.192;2023-03-21T00:47:24;98801.25;;;10.95;70.85
41140;BME280;26881;48.784;9.192;2023-03-21T00:52:46;98800.81;;;10.72;72.31
41140;BME280;26881;48.784;9.192;2023-03-21T00:58:08;98788.25;;;10.63;73.19
41140;BME280;26881;48.784;9.192;2023-03-21T01:03:32;98785.44;;;10.66;73.28
41140;BME280;26881;48.784;9.192;2023-03-21T01:09:02;98788.13;;;10.81;71.67
41140;BME280;26881;48.784;9.192;2023-03-21T01:14:24;98779.94;;;10.71;72.38
41140;BME280;26881;48.784;9.192;2023-03-21T01:19:46;98787.13;;;10.67;72.65
41140;BME280;26881;48.784;9.192;2023-03-21T01:25:13;98779.19;;;10.53;73.29
41140;BME280;26881;48.784;9.192;2023-03-21T01:30:48;98778.53;;;10.49;73.95
41140;BME280;26881;48.784;9.192;2023-03-21T01:36:16;98780.78;;;10.55;73.65
41140;BME280;26881;48.784;9.192;2023-03-21T01:41:42;98773.97;;;10.53;73.96
41140;BME280;26881;48.784;9.192;2023-03-21T01:47:05;98768.34;;;10.45;74.71
41140;BME280;26881;48.784;9.192;2023-03-21T01:52:35;98767.41;;;10.46;74.67
41140;BME280;26881;48.784;9.192;2023-03-21T01:58:02;98772.81;;;10.43;74.75
41140;BME280;26881;48.784;9.192;2023-03-21T02:03:28;98760.81;;;10.39;74.98
41140;BME280;26881;48.784;9.192;2023-03-21T02:09:02;98748.75;;;10.36;75.41
41140;BME280;26881;48.784;9.192;2023-03-21T02:14:25;98747.81;;;10.37;75.53
41140;BME280;26881;48.784;9.192;2023-03-21T02:20:26;98750.34;;;10.39;75.85
41140;BME280;26881;48.784;9.192;2023-03-21T02:26:02;98750.53;;;10.36;75.88
41140;BME280;26881;48.784;9.192;2023-03-21T02:37:05;98734.59;;;10.40;76.17
41140;BME280;26881;48.784;9.192;2023-03-21T02:48:08;98729.88;;;10.31;76.23
41140;BME280;26881;48.784;9.192;2023-03-21T02:53:49;98731.78;;;10.27;76.50
41140;BME280;26881;48.784;9.192;2023-03-21T02:59:34;98729.44;;;10.39;76.01
41140;BME280;26881;48.784;9.192;2023-03-21T03:05:18;98732.25;;;10.36;76.29
41140;BME280;26881;48.784;9.192;2023-03-21T03:28:12;98728.00;;;10.17;77.03
41140;BME280;26881;48.784;9.192;2023-03-21T03:33:37;98730.03;;;10.12;77.85
41140;BME280;26881;48.784;9.192;2023-03-21T03:39:05;98722.75;;;10.01;77.29
41140;BME280;26881;48.784;9.192;2023-03-21T03:44:29;98714.25;;;10.13;76.12
41140;BME280;26881;48.784;9.192;2023-03-21T03:55:25;98700.78;;;10.21;75.83
41140;BME280;26881;48.784;9.192;2023-03-21T04:00:49;98699.81;;;10.22;76.00
41140;BME280;26881;48.784;9.192;2023-03-21T04:06:11;98692.50;;;10.13;76.88
41140;BME280;26881;48.784;9.192;2023-03-21T04:11:34;98697.13;;;10.08;76.67
41140;BME280;26881;48.784;9.192;2023-03-21T04:16:55;98700.41;;;10.11;76.43
41140;BME280;26881;48.784;9.192;2023-03-21T04:22:17;98701.34;;;10.10;77.08
41140;BME280;26881;48.784;9.192;2023-03-21T04:27:39;98694.19;;;10.14;77.04
41140;BME280;26881;48.784;9.192;2023-03-21T04:33:01;98704.81;;;10.11;76.85
41140;BME280;26881;48.784;9.192;2023-03-21T04:38:26;98700.69;;;9.91;78.42
41140;BME280;26881;48.784;9.192;2023-03-21T04:43:51;98697.88;;;9.94;77.37
41140;BME280;26881;48.784;9.192;2023-03-21T04:49:13;98697.28;;;9.73;77.66
41140;BME280;26881;48.784;9.192;2023-03-21T04:54:34;98702.09;;;9.81;76.65
41140;BME280;26881;48.784;9.192;2023-03-21T04:59:56;98696.78;;;9.82;76.62
41140;BME280;26881;48.784;9.192;2023-03-21T05:05:18;98695.50;;;9.74;77.46
41140;BME280;26881;48.784;9.192;2023-03-21T05:10:40;98687.81;;;9.55;77.91
41140;BME280;26881;48.784;9.192;2023-03-21T05:16:01;98694.56;;;9.59;78.45
41140;BME280;26881;48.784;9.192;2023-03-21T05:21:24;98702.44;;;9.41;79.36
41140;BME280;26881;48.784;9.192;2023-03-21T05:26:49;98697.84;;;9.62;78.31
41140;BME280;26881;48.784;9.192;2023-03-21T05:32:12;98703.53;;;9.53;78.11
41140;BME280;26881;48.784;9.192;2023-03-21T05:37:34;98709.94;;;9.47;78.04
41140;BME280;26881;48.784;9.192;2023-03-21T05:42:56;98706.75;;;9.42;78.37
41140;BME280;26881;48.784;9.192;2023-03-21T05:48:18;98702.34;;;9.43;78.18
41140;BME280;26881;48.784;9.192;2023-03-21T05:53:40;98705.66;;;9.46;78.00
41140;BME280;26881;48.784;9.192;2023-03-21T05:59:01;98713.16;;;9.53;77.65
41140;BME280;26881;48.784;9.192;2023-03-21T06:04:23;98714.50;;;9.60;77.45
41140;BME280;26881;48.784;9.192;2023-03-21T06:09:45;98711.75;;;9.63;77.51
41140;BME280;26881;48.784;9.192;2023-03-21T06:15:07;98717.72;;;9.65;78.21
41140;BME280;26881;48.784;9.192;2023-03-21T06:20:29;98706.63;;;9.61;77.80
41140;BME280;26881;48.784;9.192;2023-03-21T06:25:51;98714.13;;;9.67;76.04
41140;BME280;26881;48.784;9.192;2023-03-21T06:31:15;98713.78;;;9.74;74.78
41140;BME280;26881;48.784;9.192;2023-03-21T06:36:37;98716.22;;;9.61;74.52
41140;BME280;26881;48.784;9.192;2023-03-21T06:41:59;98710.81;;;9.64;74.35
41140;BME280;26881;48.784;9.192;2023-03-21T06:47:21;98710.41;;;9.71;73.65
41140;BME280;26881;48.784;9.192;2023-03-21T06:52:43;98711.03;;;9.77;73.32
41140;BME280;26881;48.784;9.192;2023-03-21T06:58:05;98709.31;;;9.76;73.91
41140;BME280;26881;48.784;9.192;2023-03-21T07:03:27;98707.41;;;9.79;74.20
41140;BME280;26881;48.784;9.192;2023-03-21T07:08:49;98707.41;;;9.79;75.23
41140;BME280;26881;48.784;9.192;2023-03-21T07:14:10;98701.59;;;9.90;74.64
41140;BME280;26881;48.784;9.192;2023-03-21T07:19:32;98695.88;;;9.99;74.32
41140;BME280;26881;48.784;9.192;2023-03-21T07:24:54;98693.25;;;10.15;72.21
41140;BME280;26881;48.784;9.192;2023-03-21T07:30:25;98694.53;;;10.40;71.96
41140;BME280;26881;48.784;9.192;2023-03-21T07:35:51;98698.66;;;10.44;72.08
41140;BME280;26881;48.784;9.192;2023-03-21T07:41:14;98702.44;;;10.54;71.94
41140;BME280;26881;48.784;9.192;2023-03-21T07:46:36;98702.13;;;10.44;72.34
41140;BME280;26881;48.784;9.192;2023-03-21T07:51:58;98701.88;;;10.49;72.65
41140;BME280;26881;48.784;9.192;2023-03-21T07:57:26;98703.59;;;10.64;72.15
41140;BME280;26881;48.784;9.192;2023-03-21T08:02:49;98703.25;;;10.70;72.20
41140;BME280;26881;48.784;9.192;2023-03-21T08:08:19;98695.63;;;10.82;69.35
41140;BME280;26881;48.784;9.192;2023-03-21T08:13:40;98692.91;;;10.83;70.61
41140;BME280;26881;48.784;9.192;2023-03-21T08:19:02;98692.88;;;10.99;68.81
41140;BME280;26881;48.784;9.192;2023-03-21T08:24:25;98693.16;;;11.09;69.36
41140;BME280;26881;48.784;9.192;2023-03-21T08:29:47;98687.66;;;11.13;68.89
41140;BME280;26881;48.784;9.192;2023-03-21T08:35:11;98688.34;;;11.31;68.20
41140;BME280;26881;48.784;9.192;2023-03-21T08:40:34;98680.56;;;11.44;67.23
41140;BME280;26881;48.784;9.192;2023-03-21T08:45:56;98668.22;;;11.46;66.76
41140;BME280;26881;48.784;9.192;2023-03-21T08:51:18;98662.50;;;11.39;66.89
41140;BME280;26881;48.784;9.192;2023-03-21T08:56:40;98662.06;;;11.47;67.44
41140;BME280;26881;48.784;9.192;2023-03-21T09:02:02;98657.09;;;11.57;63.42
41140;BME280;26881;48.784;9.192;2023-03-21T09:07:25;98657.34;;;11.67;64.90
41140;BME280;26881;48.784;9.192;2023-03-21T09:12:50;98654.16;;;11.76;62.34
41140;BME280;26881;48.784;9.192;2023-03-21T09:18:12;98655.13;;;11.75;63.57
41140;BME280;26881;48.784;9.192;2023-03-21T09:23:35;98653.78;;;11.96;56.50
41140;BME280;26881;48.784;9.192;2023-03-21T09:28:58;98653.22;;;12.06;55.77
41140;BME280;26881;48.784;9.192;2023-03-21T09:34:21;98651.06;;;12.25;50.93
41140;BME280;26881;48.784;9.192;2023-03-21T09:39:43;98649.66;;;12.34;51.85
41140;BME280;26881;48.784;9.192;2023-03-21T09:45:18;98650.63;;;12.46;51.96
41140;BME280;26881;48.784;9.192;2023-03-21T09:50:41;98645.41;;;12.58;52.51
41140;BME280;26881;48.784;9.192;2023-03-21T09:56:04;98638.50;;;12.70;52.63
41140;BME280;26881;48.784;9.192;2023-03-21T10:01:28;98630.25;;;12.89;50.76
41140;BME280;26881;48.784;9.192;2023-03-21T10:06:59;98621.22;;;13.06;49.02
41140;BME280;26881;48.784;9.192;2023-03-21T10:12:24;98625.63;;;13.18;50.08
41140;BME280;26881;48.784;9.192;2023-03-21T10:17:59;98606.22;;;13.34;49.34
41140;BME280;26881;48.784;9.192;2023-03-21T10:23:26;98605.78;;;13.40;49.29
41140;BME280;26881;48.784;9.192;2023-03-21T10:28:49;98602.63;;;13.47;50.44
41140;BME280;26881;48.784;9.192;2023-03-21T10:39:47;98578.84;;;13.86;49.53
41140;BME280;26881;48.784;9.192;2023-03-21T10:45:15;98577.78;;;13.88;49.65
41140;BME280;26881;48.784;9.192;2023-03-21T10:50:39;98576.59;;;14.17;48.76
41140;BME280;26881;48.784;9.192;2023-03-21T10:56:06;98585.69;;;14.12;50.17
41140;BME280;26881;48.784;9.192;2023-03-21T11:01:35;98580.06;;;14.17;50.58
41140;BME280;26881;48.784;9.192;2023-03-21T11:07:04;98582.16;;;14.25;50.96
41140;BME280;26881;48.784;9.192;2023-03-21T11:12:37;98578.22;;;14.30;50.43
41140;BME280;26881;48.784;9.192;2023-03-21T11:18:14;98570.13;;;14.33;49.54
41140;BME280;26881;48.784;9.192;2023-03-21T11:23:40;98562.81;;;14.37;48.52
41140;BME280;26881;48.784;9.192;2023-03-21T11:40:31;98548.97;;;14.46;50.73
41140;BME280;26881;48.784;9.192;2023-03-21T11:46:13;98551.50;;;14.48;50.40
41140;BME280;26881;48.784;9.192;2023-03-21T11:57:47;98533.06;;;14.48;47.24
41140;BME280;26881;48.784;9.192;2023-03-21T12:14:59;98514.50;;;14.49;49.64
41140;BME280;26881;48.784;9.192;2023-03-21T12:20:33;98510.94;;;14.50;49.92
41140;BME280;26881;48.784;9.192;2023-03-21T12:48:27;98480.50;;;14.59;50.85
41140;BME280;26881;48.784;9.192;2023-03-21T12:54:06;98473.91;;;14.65;51.17
41140;BME280;26881;48.784;9.192;2023-03-21T12:59:39;98466.00;;;14.65;49.84
41140;BME280;26881;48.784;9.192;2023-03-21T13:10:48;98460.25;;;14.82;48.88
41140;BME280;26881;48.784;9.192;2023-03-21T13:27:03;98446.97;;;14.84;48.29
41140;BME280;26881;48.784;9.192;2023-03-21T13:32:32;98444.34;;;14.84;48.10
41140;BME280;26881;48.784;9.192;2023-03-21T13:38:09;98433.81;;;14.84;45.78
41140;BME280;26881;48.784;9.192;2023-03-21T13:49:25;98417.91;;;14.85;45.27
41140;BME280;26881;48.784;9.192;2023-03-21T13:54:51;98420.53;;;14.85;47.37
41140;BME280;26881;48.784;9.192;2023-03-21T14:00:23;98416.94;;;14.86;47.84
41140;BME280;26881;48.784;9.192;2023-03-21T14:05:48;98421.25;;;14.87;49.02
41140;BME280;26881;48.784;9.192;2023-03-21T14:11:16;98409.75;;;14.88;48.51
41140;BME280;26881;48.784;9.192;2023-03-21T14:16:40;98400.19;;;14.87;48.63
41140;BME280;26881;48.784;9.192;2023-03-21T14:22:01;98410.72;;;14.87;49.49
41140;BME280;26881;48.784;9.192;2023-03-21T14:27:29;98403.66;;;14.88;49.08
41140;BME280;26881;48.784;9.192;2023-03-21T14:33:04;98398.50;;;14.86;49.44
41140;BME280;26881;48.784;9.192;2023-03-21T14:38:33;98393.25;;;14.86;49.07
41140;BME280;26881;48.784;9.192;2023-03-21T14:44:11;98394.94;;;14.87;49.34
41140;BME280;26881;48.784;9.192;2023-03-21T14:49:36;98389.88;;;14.84;49.25
41140;BME280;26881;48.784;9.192;2023-03-21T14:55:04;98391.31;;;14.88;49.72
41140;BME280;26881;48.784;9.192;2023-03-21T15:00:35;98394.78;;;14.89;50.04
41140;BME280;26881;48.784;9.192;2023-03-21T15:05:57;98392.97;;;14.89;49.24
41140;BME280;26881;48.784;9.192;2023-03-21T15:11:28;98387.72;;;14.89;49.53
41140;BME280;26881;48.784;9.192;2023-03-21T15:16:51;98378.88;;;14.90;48.41
41140;BME280;26881;48.784;9.192;2023-03-21T15:22:33;98383.16;;;14.91;49.03
41140;BME280;26881;48.784;9.192;2023-03-21T15:27:59;98379.59;;;14.92;49.45
41140;BME280;26881;48.784;9.192;2023-03-21T15:33:23;98390.13;;;14.92;49.62
41140;BME280;26881;48.784;9.192;2023-03-21T15:38:46;98393.97;;;14.88;50.68
41140;BME280;26881;48.784;9.192;2023-03-21T15:44:13;98398.28;;;14.78;50.85
41140;BME280;26881;48.784;9.192;2023-03-21T15:49:39;98393.03;;;14.78;51.01
41140;BME280;26881;48.784;9.192;2023-03-21T15:55:16;98393.59;;;14.70;51.64
41140;BME280;26881;48.784;9.192;2023-03-21T16:00:46;98398.75;;;14.61;52.83
41140;BME280;26881;48.784;9.192;2023-03-21T16:11:38;98399.25;;;14.54;53.52
41140;BME280;26881;48.784;9.192;2023-03-21T16:17:12;98397.91;;;14.49;54.12
41140;BME280;26881;48.784;9.192;2023-03-21T16:22:43;98390.38;;;14.44;54.17
41140;BME280;26881;48.784;9.192;2023-03-21T16:28:11;98395.25;;;14.38;54.27
41140;BME280;26881;48.784;9.192;2023-03-21T16:33:34;98397.03;;;14.26;54.56
41140;BME280;26881;48.784;9.192;2023-03-21T16:38:57;98405.44;;;14.20;55.18
41140;BME280;26881;48.784;9.192;2023-03-21T16:44:19;98402.44;;;14.13;56.65
41140;BME280;26881;48.784;9.192;2023-03-21T16:49:41;98399.66;;;14.15;55.50
41140;BME280;26881;48.784;9.192;2023-03-21T16:55:03;98394.75;;;14.10;56.11
41140;BME280;26881;48.784;9.192;2023-03-21T17:00:26;98400.50;;;14.04;56.81
41140;BME280;26881;48.784;9.192;2023-03-21T17:05:49;98409.69;;;14.09;56.01
41140;BME280;26881;48.784;9.192;2023-03-21T17:11:13;98412.22;;;14.11;55.62
41140;BME280;26881;48.784;9.192;2023-03-21T17:16:37;98412.13;;;14.12;55.72
41140;BME280;26881;48.784;9.192;2023-03-21T17:22:03;98414.22;;;14.07;56.29
41140;BME280;26881;48.784;9.192;2023-03-21T17:27:25;98414.03;;;14.10;55.80
41140;BME280;26881;48.784;9.192;2023-03-21T17:32:48;98405.78;;;14.15;56.10
41140;BME280;26881;48.784;9.192;2023-03-21T17:38:14;98412.19;;;14.00;56.45
41140;BME280;26881;48.784;9.192;2023-03-21T17:43:37;98417.56;;;13.87;57.53
41140;BME280;26881;48.784;9.192;2023-03-21T17:48:59;98425.06;;;13.91;57.39
41140;BME280;26881;48.784;9.192;2023-03-21T17:54:21;98427.94;;;13.88;57.41
41140;BME280;26881;48.784;9.192;2023-03-21T17:59:42;98426.94;;;13.78;58.34
41140;BME280;26881;48.784;9.192;2023-03-21T18:05:05;98427.69;;;13.80;58.42
41140;BME280;26881;48.784;9.192;2023-03-21T18:10:27;98425.84;;;13.69;59.23
41140;BME280;26881;48.784;9.192;2023-03-21T18:15:49;98418.78;;;13.70;59.16
41140;BME280;26881;48.784;9.192;2023-03-21T18:21:15;98439.25;;;13.54;60.91
41140;BME280;26881;48.784;9.192;2023-03-21T18:26:42;98438.03;;;13.46;62.04
41140;BME280;26881;48.784;9.192;2023-03-21T18:32:04;98442.22;;;13.49;61.66
41140;BME280;26881;48.784;9.192;2023-03-21T18:37:28;98432.19;;;13.43;62.40
41140;BME280;26881;48.784;9.192;2023-03-21T18:42:56;98418.53;;;13.38;63.24
41140;BME280;26881;48.784;9.192;2023-03-21T18:48:38;98407.09;;;13.39;62.80
41140;BME280;26881;48.784;9.192;2023-03-21T18:54:00;98425.19;;;13.31;64.15
41140;BME280;26881;48.784;9.192;2023-03-21T18:59:22;98439.38;;;13.28;63.28
41140;BME280;26881;48.784;9.192;2023-03-21T19:04:44;98456.81;;;13.29;63.31
41140;BME280;26881;48.784;9.192;2023-03-21T19:10:06;98462.56;;;13.21;62.84
41140;BME280;26881;48.784;9.192;2023-03-21T19:15:40;98436.66;;;13.30;63.03
41140;BME280;26881;48.784;9.192;2023-03-21T19:21:03;98444.09;;;13.23;62.68
41140;BME280;26881;48.784;9.192;2023-03-21T19:26:26;98414.66;;;13.31;62.81
41140;BME280;26881;48.784;9.192;2023-03-21T19:31:49;98405.84;;;13.32;63.07
41140;BME280;26881;48.784;9.192;2023-03-21T19:37:12;98451.69;;;13.15;65.04
41140;BME280;26881;48.784;9.192;2023-03-21T19:42:34;98445.47;;;13.28;62.39
41140;BME280;26881;48.784;9.192;2023-03-21T19:47:57;98447.25;;;13.28;62.58
41140;BME280;26881;48.784;9.192;2023-03-21T19:53:19;98451.13;;;13.22;63.90
41140;BME280;26881;48.784;9.192;2023-03-21T19:58:41;98442.88;;;13.03;64.91
41140;BME280;26881;48.784;9.192;2023-03-21T20:04:03;98441.13;;;13.03;65.17
41140;BME280;26881;48.784;9.192;2023-03-21T20:09:26;98432.75;;;12.98;65.06
41140;BME280;26881;48.784;9.192;2023-03-21T20:15:08;98426.84;;;12.95;66.00
41140;BME280;26881;48.784;9.192;2023-03-21T20:20:40;98429.38;;;12.96;65.56
41140;BME280;26881;48.784;9.192;2023-03-21T20:26:11;98429.97;;;13.00;65.64
41140;BME280;26881;48.784;9.192;2023-03-21T20:31:33;98425.78;;;12.97;65.79
41140;BME280;26881;48.784;9.192;2023-03-21T20:36:56;98433.97;;;13.05;64.65
41140;BME280;26881;48.784;9.192;2023-03-21T20:42:19;98438.59;;;13.02;64.51
41140;BME280;26881;48.784;9.192;2023-03-21T20:47:41;98448.28;;;12.89;66.22
41140;BME280;26881;48.784;9.192;2023-03-21T20:53:03;98447.66;;;12.85;65.89
41140;BME280;26881;48.784;9.192;2023-03-21T20:58:29;98442.63;;;12.82;65.27
41140;BME280;26881;48.784;9.192;2023-03-21T21:04:12;98435.69;;;12.81;65.91
41140;BME280;26881;48.784;9.192;2023-03-21T21:09:41;98445.13;;;12.83;65.89
41140;BME280;26881;48.784;9.192;2023-03-21T21:15:06;98450.81;;;12.77;66.06
41140;BME280;26881;48.784;9.192;2023-03-21T21:20:28;98443.16;;;12.74;65.42
41140;BME280;26881;48.784;9.192;2023-03-21T21:25:53;98446.94;;;12.70;65.89
41140;BME280;26881;48.784;9.192;2023-03-21T21:31:17;98432.88;;;12.71;67.03
41140;BME280;26881;48.784;9.192;2023-03-21T21:36:39;98442.44;;;12.72;67.25
41140;BME280;26881;48.784;9.192;2023-03-21T21:42:00;98431.50;;;12.65;68.02
41140;BME280;26881;48.784;9.192;2023-03-21T21:47:23;98433.63;;;12.60;68.24
41140;BME280;26881;48.784;9.192;2023-03-21T21:52:44;98431.00;;;12.60;68.16
41140;BME280;26881;48.784;9.192;2023-03-21T21:58:17;98419.78;;;12.58;68.35
41140;BME280;26881;48.784;9.192;2023-03-21T22:03:41;98429.00;;;12.51;68.46
41140;BME280;26881;48.784;9.192;2023-03-21T22:09:06;98430.81;;;12.51;69.12
41140;BME280;26881;48.784;9.192;2023-03-21T22:14:28;98429.25;;;12.48;68.54
41140;BME280;26881;48.784;9.192;2023-03-21T22:19:50;98423.91;;;12.50;68.28
41140;BME280;26881;48.784;9.192;2023-03-21T22:25:26;98432.91;;;12.46;68.27
41140;BME280;26881;48.784;9.192;2023-03-21T22:30:47;98431.44;;;12.41;68.34
41140;BME280;26881;48.784;9.192;2023-03-21T22:36:10;98442.66;;;12.43;68.47
41140;BME280;26881;48.784;9.192;2023-03-21T22:41:32;98433.00;;;12.44;68.05
41140;BME280;26881;48.784;9.192;2023-03-21T22:46:53;98441.00;;;12.42;69.04
41140;BME280;26881;48.784;9.192;2023-03-21T22:52:15;98446.13;;;12.31;70.23
41140;BME280;26881;48.784;9.192;2023-03-21T22:57:37;98455.91;;;12.29;69.97
41140;BME280;26881;48.784;9.192;2023-03-21T23:02:59;98446.22;;;12.30;68.85
41140;BME280;26881;48.784;9.192;2023-03-21T23:08:21;98450.53;;;12.18;69.32
41140;BME280;26881;48.784;9.192;2023-03-21T23:13:44;98448.88;;;12.17;70.45
41140;BME280;26881;48.784;9.192;2023-03-21T23:19:08;98449.56;;;12.06;70.07
41140;BME280;26881;48.784;9.192;2023-03-21T23:24:30;98441.28;;;11.99;71.36
41140;BME280;26881;48.784;9.192;2023-03-21T23:29:52;98447.72;;;11.81;71.22
41140;BME280;26881;48.784;9.192;2023-03-21T23:35:14;98446.22;;;11.91;69.92
41140;BME280;26881;48.784;9.192;2023-03-21T23:40:39;98451.63;;;11.88;69.64
41140;BME280;26881;48.784;9.192;2023-03-21T23:46:02;98457.63;;;11.90;69.70
41140;BME280;26881;48.784;9.192;2023-03-21T23:51:24;98457.31;;;11.95;69.01
41140;BME280;26881;48.784;9.192;2023-03-21T23:56:46;98450.53;;;11.78;69.76
